createdAt,value
2018-12-14T00:01:52.117Z,-1.80
2018-12-14T00:04:24.540Z,-1.80
2018-12-14T00:06:54.243Z,-1.80
2018-12-14T00:09:21.838Z,-1.80
2018-12-14T00:11:51.712Z,-1.80
2018-12-14T00:14:22.381Z,-1.80
2018-12-14T00:16:52.769Z,-1.80
2018-12-14T00:19:24.490Z,-1.80
2018-12-14T00:21:54.049Z,-1.80
2018-12-14T00:24:21.997Z,-1.80
2018-12-14T00:29:19.875Z,-1.80
2018-12-14T00:31:49.241Z,-1.80
2018-12-14T00:34:17.359Z,-1.80
2018-12-14T00:36:47.021Z,-1.80
2018-12-14T00:39:16.892Z,-1.80
2018-12-14T00:41:51.779Z,-1.80
2018-12-14T00:44:18.212Z,-1.80
2018-12-14T00:46:49.872Z,-1.80
2018-12-14T00:49:17.689Z,-1.80
2018-12-14T00:51:45.428Z,-1.80
2018-12-14T00:54:15.119Z,-1.80
2018-12-14T00:56:44.724Z,-1.80
2018-12-14T00:59:12.430Z,-1.80
2018-12-14T01:01:42.226Z,-1.80
2018-12-14T01:04:11.970Z,-1.80
2018-12-14T01:06:41.558Z,-1.80
2018-12-14T01:09:14.029Z,-1.80
2018-12-14T01:11:43.912Z,-1.80
2018-12-14T01:14:14.775Z,-1.80
2018-12-14T01:16:44.369Z,-1.80
2018-12-14T01:19:14.357Z,-1.80
2018-12-14T01:21:44.073Z,-1.90
2018-12-14T01:24:13.951Z,-1.80
2018-12-14T01:26:41.631Z,-1.80
2018-12-14T01:31:40.084Z,-1.90
2018-12-14T01:34:09.965Z,-1.90
2018-12-14T01:36:39.689Z,-1.90
2018-12-14T01:39:09.641Z,-1.90
2018-12-14T01:41:40.498Z,-1.90
2018-12-14T01:44:12.866Z,-1.90
2018-12-14T01:46:42.377Z,-1.90
2018-12-14T01:49:13.044Z,-1.90
2018-12-14T01:51:42.661Z,-1.90
2018-12-14T01:54:10.471Z,-1.90
2018-12-14T01:56:41.610Z,-1.90
2018-12-14T01:59:11.140Z,-1.80
2018-12-14T02:01:38.906Z,-1.80
2018-12-14T02:04:08.608Z,-1.90
2018-12-14T02:06:38.501Z,-1.90
2018-12-14T02:09:08.906Z,-1.90
2018-12-14T02:11:39.847Z,-1.90
2018-12-14T02:14:09.523Z,-1.80
2018-12-14T02:16:39.544Z,-1.80
2018-12-14T02:19:11.148Z,-1.90
2018-12-14T02:21:41.539Z,-1.90
2018-12-14T02:24:13.868Z,-1.90
2018-12-14T02:26:43.719Z,-1.90
2018-12-14T02:29:14.382Z,-1.90
2018-12-14T02:31:46.936Z,-1.90
2018-12-14T02:34:17.043Z,-1.90
2018-12-14T02:36:46.495Z,-1.90
2018-12-14T02:39:16.607Z,-1.90
2018-12-14T02:41:46.870Z,-1.90
2018-12-14T02:44:16.470Z,-1.90
2018-12-14T02:46:46.335Z,-1.90
2018-12-14T02:49:16.125Z,-1.90
2018-12-14T02:51:45.734Z,-1.90
2018-12-14T02:54:15.549Z,-1.90
2018-12-14T02:56:45.228Z,-1.80
2018-12-14T02:59:14.778Z,-1.80
2018-12-14T03:01:44.427Z,-1.80
2018-12-14T03:04:17.174Z,-1.90
2018-12-14T03:06:47.200Z,-1.90
2018-12-14T03:09:17.048Z,-1.90
2018-12-14T03:11:44.867Z,-1.90
2018-12-14T03:14:17.455Z,-1.90
2018-12-14T03:16:47.888Z,-1.90
2018-12-14T03:19:16.100Z,-1.90
2018-12-14T03:21:46.904Z,-1.90
2018-12-14T03:24:19.742Z,-1.90
2018-12-14T03:26:51.737Z,-1.90
2018-12-14T03:29:19.870Z,-1.90
2018-12-14T03:31:50.026Z,-1.90
2018-12-14T03:39:14.883Z,-1.90
2018-12-14T03:41:44.829Z,-1.90
2018-12-14T03:44:12.692Z,-1.90
2018-12-14T03:46:42.642Z,-1.90
2018-12-14T03:49:12.936Z,-1.90
2018-12-14T03:51:42.755Z,-1.90
2018-12-14T03:54:10.578Z,-1.90
2018-12-14T03:56:40.765Z,-1.90
2018-12-14T03:59:10.301Z,-1.90
2018-12-14T04:01:40.070Z,-1.90
2018-12-14T04:04:10.039Z,-1.90
2018-12-14T04:06:40.090Z,-1.90
2018-12-14T04:09:10.098Z,-1.90
2018-12-14T04:11:39.739Z,-1.90
2018-12-14T04:14:09.617Z,-1.80
2018-12-14T04:16:39.544Z,-1.80
2018-12-14T04:19:07.280Z,-1.90
2018-12-14T04:21:37.479Z,-1.80
2018-12-14T04:24:06.365Z,-1.80
2018-12-14T04:26:36.197Z,-1.90
2018-12-14T04:29:06.184Z,-1.90
2018-12-14T04:31:36.231Z,-1.80
2018-12-14T04:34:07.029Z,-1.90
2018-12-14T04:36:36.652Z,-1.90
2018-12-14T04:39:06.519Z,-1.90
2018-12-14T04:46:33.149Z,-1.90
2018-12-14T04:49:03.181Z,-1.90
2018-12-14T04:51:32.918Z,-1.90
2018-12-14T04:54:02.738Z,-1.90
2018-12-14T04:56:32.701Z,-1.90
2018-12-14T04:59:02.807Z,-1.90
2018-12-14T05:01:32.318Z,-1.90
2018-12-14T05:04:02.525Z,-1.90
2018-12-14T05:06:32.457Z,-1.90
2018-12-14T05:09:00.353Z,-1.90
2018-12-14T05:11:28.362Z,-1.90
2018-12-14T05:13:58.432Z,-1.90
2018-12-14T05:16:28.259Z,-1.90
2018-12-14T05:18:58.100Z,-2.00
2018-12-14T05:21:31.088Z,-2.00
2018-12-14T05:24:01.145Z,-2.00
2018-12-14T05:26:31.091Z,-1.90
2018-12-14T05:29:01.215Z,-2.00
2018-12-14T05:31:31.329Z,-2.00
2018-12-14T05:34:01.212Z,-2.00
2018-12-14T05:36:31.342Z,-2.00
2018-12-14T05:39:01.314Z,-2.00
2018-12-14T05:41:32.432Z,-2.00
2018-12-14T05:44:02.429Z,-2.00
2018-12-14T05:46:30.276Z,-2.00
2018-12-14T05:49:01.308Z,-2.00
2018-12-14T05:51:31.018Z,-2.00
2018-12-14T05:54:00.969Z,-2.10
2018-12-14T05:56:31.047Z,-2.00
2018-12-14T05:59:01.998Z,-2.10
2018-12-14T06:01:31.915Z,-2.00
2018-12-14T06:04:02.095Z,-2.10
2018-12-14T06:06:29.595Z,-2.10
2018-12-14T06:08:59.783Z,-2.10
2018-12-14T06:11:29.539Z,-2.10
2018-12-14T06:13:59.473Z,-2.00
2018-12-14T06:16:28.970Z,-2.00
2018-12-14T06:19:00.954Z,-2.00
2018-12-14T06:24:32.019Z,-2.00
2018-12-14T06:27:02.893Z,-2.00
2018-12-14T06:29:40.918Z,-2.10
2018-12-14T06:32:11.675Z,-2.00
2018-12-14T06:34:41.756Z,-2.00
2018-12-14T06:37:11.995Z,-2.00
2018-12-14T06:39:41.381Z,-2.00
2018-12-14T06:42:09.488Z,-2.10
2018-12-14T06:44:42.640Z,-2.10
2018-12-14T06:47:12.499Z,-2.10
2018-12-14T06:49:40.240Z,-2.00
2018-12-14T06:54:39.089Z,-2.00
2018-12-14T06:57:08.913Z,-2.00
2018-12-14T07:02:43.083Z,-2.00
2018-12-14T07:05:13.043Z,-2.00
2018-12-14T07:07:42.574Z,-2.10
2018-12-14T07:10:15.626Z,-2.10
2018-12-14T07:12:46.489Z,-2.10
2018-12-14T07:15:16.484Z,-2.10
2018-12-14T07:17:46.630Z,-2.10
2018-12-14T07:20:16.592Z,-2.10
2018-12-14T07:22:46.260Z,-2.10
2018-12-14T07:25:16.541Z,-2.10
2018-12-14T07:30:49.034Z,-2.10
2018-12-14T07:33:26.860Z,-2.10
2018-12-14T07:35:57.040Z,-2.10
2018-12-14T07:38:29.789Z,-2.10
2018-12-14T07:40:59.805Z,-2.10
2018-12-14T07:43:30.064Z,-2.10
2018-12-14T07:46:13.813Z,-2.00
2018-12-14T07:48:43.037Z,-2.00
2018-12-14T07:51:13.326Z,-2.00
2018-12-14T07:53:42.904Z,-2.00
2018-12-14T07:56:12.565Z,-2.00
2018-12-14T07:58:42.520Z,-2.00
2018-12-14T08:01:12.832Z,-2.00
2018-12-14T08:03:42.511Z,-2.00
2018-12-14T08:06:11.878Z,-2.00
2018-12-14T08:08:41.783Z,-2.00
2018-12-14T08:11:11.225Z,-2.00
2018-12-14T08:13:40.965Z,-2.00
2018-12-14T08:16:10.570Z,-2.00
2018-12-14T08:18:40.071Z,-2.00
2018-12-14T08:21:09.910Z,-2.00
2018-12-14T08:23:39.357Z,-2.00
2018-12-14T08:26:09.097Z,-2.00
2018-12-14T08:28:38.748Z,-2.00
2018-12-14T08:31:08.507Z,-2.00
2018-12-14T08:33:38.212Z,-2.00
2018-12-14T08:36:08.215Z,-1.90
2018-12-14T08:38:37.626Z,-1.90
2018-12-14T08:41:07.374Z,-1.90
2018-12-14T08:43:41.391Z,-1.90
2018-12-14T08:46:08.587Z,-1.90
2018-12-14T08:48:38.264Z,-1.90
2018-12-14T08:51:07.891Z,-1.90
2018-12-14T08:53:37.855Z,-1.90
2018-12-14T08:56:06.272Z,-1.90
2018-12-14T08:58:35.931Z,-1.80
2018-12-14T09:08:31.721Z,-1.80
2018-12-14T09:11:00.160Z,-1.80
2018-12-14T09:13:32.922Z,-1.70
2018-12-14T09:16:05.981Z,-1.70
2018-12-14T09:18:36.907Z,-1.70
2018-12-14T09:21:07.844Z,-1.70
2018-12-14T09:23:40.994Z,-1.60
2018-12-14T09:26:10.941Z,-1.60
2018-12-14T09:28:40.562Z,-1.60
2018-12-14T09:31:11.262Z,-1.60
2018-12-14T09:33:38.898Z,-1.60
2018-12-14T09:36:06.848Z,-1.60
2018-12-14T09:38:40.410Z,-1.60
2018-12-14T09:41:16.018Z,-1.60
2018-12-14T09:43:41.853Z,-1.60
2018-12-14T09:49:14.266Z,-1.60
2018-12-14T09:51:43.941Z,-1.60
2018-12-14T09:54:13.631Z,-1.60
2018-12-14T09:56:43.254Z,-1.50
2018-12-14T09:59:13.010Z,-1.60
2018-12-14T10:01:43.017Z,-1.60
2018-12-14T10:04:10.580Z,-1.60
2018-12-14T10:06:40.835Z,-1.60
2018-12-14T10:09:10.886Z,-1.60
2018-12-14T10:11:40.564Z,-1.60
2018-12-14T10:17:15.987Z,-1.60
2018-12-14T10:19:45.600Z,-1.60
2018-12-14T10:22:15.254Z,-1.60
2018-12-14T10:24:45.236Z,-1.60
2018-12-14T10:27:15.984Z,-1.60
2018-12-14T10:29:45.899Z,-1.60
2018-12-14T10:32:15.602Z,-1.60
2018-12-14T10:34:47.972Z,-1.60
2018-12-14T10:37:15.951Z,-1.60
2018-12-14T10:39:48.286Z,-1.60
2018-12-14T10:42:18.134Z,-1.50
2018-12-14T10:44:50.626Z,-1.60
2018-12-14T10:47:20.575Z,-1.60
2018-12-14T10:49:50.456Z,-1.70
2018-12-14T10:52:20.571Z,-1.60
2018-12-14T10:54:50.190Z,-1.70
2018-12-14T10:57:19.864Z,-1.70
2018-12-14T10:59:47.367Z,-1.60
2018-12-14T11:02:17.770Z,-1.60
2018-12-14T11:07:48.663Z,-1.70
2018-12-14T11:12:47.123Z,-1.70
2018-12-14T11:15:16.722Z,-1.80
2018-12-14T11:17:44.269Z,-1.80
2018-12-14T11:20:13.939Z,-1.80
2018-12-14T11:25:46.982Z,-1.80
2018-12-14T11:28:16.832Z,-1.90
2018-12-14T11:30:44.370Z,-1.80
2018-12-14T11:33:14.237Z,-1.90
2018-12-14T11:35:43.837Z,-1.80
2018-12-14T11:38:13.444Z,-1.80
2018-12-14T11:40:45.915Z,-1.80
2018-12-14T11:43:15.887Z,-1.70
2018-12-14T11:45:45.367Z,-1.70
2018-12-14T11:51:18.087Z,-1.70
2018-12-14T11:56:50.551Z,-1.70
2018-12-14T11:59:21.238Z,-1.70
2018-12-14T12:01:51.037Z,-1.70
2018-12-14T12:04:20.690Z,-1.60
2018-12-14T12:06:50.383Z,-1.60
2018-12-14T12:09:21.032Z,-1.60
2018-12-14T12:14:19.650Z,-1.70
2018-12-14T12:16:49.553Z,-1.70
2018-12-14T12:19:17.144Z,-1.70
2018-12-14T12:21:47.111Z,-1.80
2018-12-14T12:24:16.546Z,-1.80
2018-12-14T12:26:46.217Z,-1.80
2018-12-14T12:29:13.983Z,-1.70
2018-12-14T12:31:43.755Z,-1.70
2018-12-14T12:34:16.341Z,-1.70
2018-12-14T12:36:46.090Z,-1.70
2018-12-14T12:39:15.840Z,-1.70
2018-12-14T12:41:45.357Z,-1.70
2018-12-14T12:44:14.766Z,-1.70
2018-12-14T12:46:44.653Z,-1.80
2018-12-14T12:49:14.158Z,-1.80
2018-12-14T12:51:46.858Z,-1.80
2018-12-14T12:54:16.521Z,-1.80
2018-12-14T12:56:44.305Z,-1.90
2018-12-14T12:59:16.822Z,-1.90
2018-12-14T13:01:46.705Z,-1.90
2018-12-14T13:07:19.285Z,-2.00
2018-12-14T13:09:53.622Z,-2.00
2018-12-14T13:12:26.247Z,-2.00
2018-12-14T13:22:56.328Z,-2.00
2018-12-14T13:25:25.970Z,-2.00
2018-12-14T13:27:55.674Z,-2.10
2018-12-14T13:30:25.372Z,-2.10
2018-12-14T13:32:58.497Z,-2.10
2018-12-14T13:35:28.731Z,-2.00
2018-12-14T13:37:58.243Z,-2.00
2018-12-14T13:40:28.323Z,-2.00
2018-12-14T13:42:57.691Z,-2.10
2018-12-14T13:45:27.692Z,-2.00
2018-12-14T13:47:57.257Z,-2.00
2018-12-14T13:50:27.034Z,-2.00
2018-12-14T13:52:57.566Z,-2.00
2018-12-14T13:55:30.311Z,-1.90
2018-12-14T14:01:02.688Z,-1.90
2018-12-14T14:03:32.255Z,-1.90
2018-12-14T14:06:04.972Z,-1.90
2018-12-14T14:08:35.708Z,-1.90
2018-12-14T14:14:06.068Z,-1.90
2018-12-14T14:16:33.714Z,-1.90
2018-12-14T14:22:06.338Z,-2.00
2018-12-14T14:27:04.570Z,-2.00
2018-12-14T14:32:36.761Z,-2.10
2018-12-14T14:35:06.918Z,-2.10
2018-12-14T14:40:38.850Z,-2.10
2018-12-14T14:43:08.470Z,-2.10
2018-12-14T14:45:38.150Z,-2.10
2018-12-14T14:51:09.789Z,-2.10
2018-12-14T14:53:39.708Z,-2.10
2018-12-14T14:56:09.226Z,-2.10
2018-12-14T14:58:41.682Z,-2.20
2018-12-14T15:01:11.693Z,-2.20
2018-12-14T15:03:41.622Z,-2.20
2018-12-14T15:06:11.155Z,-2.20
2018-12-14T15:08:40.963Z,-2.20
2018-12-14T15:11:08.380Z,-2.20
2018-12-14T15:13:38.454Z,-2.20
2018-12-14T15:16:08.143Z,-2.10
2018-12-14T15:18:37.870Z,-2.20
2018-12-14T15:21:08.267Z,-2.20
2018-12-14T15:23:38.882Z,-2.20
2018-12-14T15:29:14.419Z,-2.10
2018-12-14T15:34:49.541Z,-2.10
2018-12-14T15:37:19.706Z,-2.10
2018-12-14T15:39:49.162Z,-2.10
2018-12-14T15:42:18.972Z,-2.10
2018-12-14T15:44:48.603Z,-2.10
2018-12-14T15:47:18.231Z,-2.10
2018-12-14T15:49:47.983Z,-2.00
2018-12-14T15:52:15.810Z,-2.00
2018-12-14T15:54:46.625Z,-2.10
2018-12-14T15:57:19.451Z,-2.10
2018-12-14T15:59:48.934Z,-2.10
2018-12-14T16:02:18.738Z,-2.10
2018-12-14T16:07:54.242Z,-2.10
2018-12-14T16:10:24.000Z,-2.10
2018-12-14T16:12:53.746Z,-2.10
2018-12-14T16:15:23.605Z,-2.10
2018-12-14T16:20:56.023Z,-2.10
2018-12-14T16:23:25.912Z,-2.10
2018-12-14T16:25:55.715Z,-2.10
2018-12-14T16:28:28.181Z,-2.10
2018-12-14T16:30:56.088Z,-2.20
2018-12-14T16:33:25.858Z,-2.20
2018-12-14T16:38:58.184Z,-2.20
2018-12-14T16:41:27.661Z,-2.20
2018-12-14T16:43:58.291Z,-2.20
2018-12-14T16:46:27.799Z,-2.20
2018-12-14T16:48:57.272Z,-2.20
2018-12-14T16:51:29.607Z,-2.20
2018-12-14T16:54:04.204Z,-2.10
2018-12-14T16:56:34.167Z,-2.10
2018-12-14T16:59:03.741Z,-2.10
2018-12-14T17:01:34.779Z,-2.10
2018-12-14T17:07:08.793Z,-2.10
2018-12-14T17:09:38.588Z,-2.20
2018-12-14T17:12:08.438Z,-2.20
2018-12-14T17:14:36.254Z,-2.20
2018-12-14T17:17:03.874Z,-2.20
2018-12-14T17:19:37.454Z,-2.10
2018-12-14T17:22:07.231Z,-2.10
2018-12-14T17:24:37.114Z,-2.10
2018-12-14T17:27:06.736Z,-2.10
2018-12-14T17:29:43.562Z,-2.10
2018-12-14T17:32:13.465Z,-2.10
2018-12-14T17:37:46.797Z,-2.20
2018-12-14T17:40:16.611Z,-2.20
2018-12-14T17:42:46.830Z,-2.30
2018-12-14T17:48:22.013Z,-2.20
2018-12-14T17:50:52.882Z,-2.20
2018-12-14T17:53:22.371Z,-2.20
2018-12-14T17:58:55.008Z,-2.20
2018-12-14T18:04:27.889Z,-2.20
2018-12-14T18:06:57.770Z,-2.20
2018-12-14T18:09:28.065Z,-2.20
2018-12-14T18:11:57.922Z,-2.20
2018-12-14T18:17:30.751Z,-2.10
2018-12-14T18:19:58.486Z,-2.10
2018-12-14T18:22:29.105Z,-2.10
2018-12-14T18:28:01.444Z,-2.10
2018-12-14T18:30:31.383Z,-2.20
2018-12-14T18:33:01.178Z,-2.10
2018-12-14T18:35:30.678Z,-2.20
2018-12-14T18:37:58.565Z,-2.10
2018-12-14T18:40:28.350Z,-2.20
2018-12-14T18:42:58.324Z,-2.10
2018-12-14T18:45:29.197Z,-2.20
2018-12-14T18:47:59.133Z,-2.20
2018-12-14T18:53:31.874Z,-2.10
2018-12-14T18:59:05.006Z,-2.10
2018-12-14T19:01:34.559Z,-2.10
2018-12-14T19:04:04.475Z,-2.10
2018-12-14T19:06:34.241Z,-2.10
2018-12-14T19:09:05.007Z,-2.10
2018-12-14T19:11:34.674Z,-2.10
2018-12-14T19:14:04.595Z,-2.10
2018-12-14T19:16:34.532Z,-2.10
2018-12-14T19:19:04.294Z,-2.10
2018-12-14T19:21:33.980Z,-2.00
2018-12-14T19:24:03.898Z,-2.00
2018-12-14T19:26:33.903Z,-2.00
2018-12-14T19:29:03.815Z,-2.00
2018-12-14T19:31:36.328Z,-2.00
2018-12-14T19:37:09.230Z,-2.00
2018-12-14T19:39:39.183Z,-1.90
2018-12-14T19:42:09.054Z,-2.00
2018-12-14T19:44:37.141Z,-1.90
2018-12-14T19:47:07.262Z,-1.90
2018-12-14T19:49:37.323Z,-1.90
2018-12-14T19:52:07.373Z,-1.90
2018-12-14T19:54:35.766Z,-1.90
2018-12-14T19:57:05.429Z,-1.90
2018-12-14T19:59:35.446Z,-1.90
2018-12-14T20:02:05.535Z,-1.90
2018-12-14T20:04:35.407Z,-1.90
2018-12-14T20:10:08.855Z,-1.90
2018-12-14T20:12:38.467Z,-1.90
2018-12-14T20:15:08.504Z,-1.80
2018-12-14T20:17:38.378Z,-1.80
2018-12-14T20:23:11.747Z,-1.80
2018-12-14T20:25:41.552Z,-1.80
2018-12-14T20:28:11.375Z,-1.90
2018-12-14T20:33:47.107Z,-1.90
2018-12-14T20:36:17.154Z,-1.90
2018-12-14T20:41:49.895Z,-1.80
2018-12-14T20:44:19.724Z,-1.80
2018-12-14T20:46:49.886Z,-1.80
2018-12-14T20:49:19.649Z,-1.80
2018-12-14T20:51:49.434Z,-1.70
2018-12-14T20:54:19.534Z,-1.70
2018-12-14T20:56:51.788Z,-1.70
2018-12-14T20:59:21.197Z,-1.70
2018-12-14T21:01:51.093Z,-1.60
2018-12-14T21:04:21.032Z,-1.70
2018-12-14T21:06:51.194Z,-1.70
2018-12-14T21:09:18.490Z,-1.70
2018-12-14T21:11:48.212Z,-1.70
2018-12-14T21:14:18.465Z,-1.60
2018-12-14T21:16:48.520Z,-1.70
2018-12-14T21:19:18.615Z,-1.70
2018-12-14T21:24:51.450Z,-1.60
2018-12-14T21:27:21.335Z,-1.60
2018-12-14T21:29:48.986Z,-1.60
2018-12-14T21:32:19.080Z,-1.60
2018-12-14T21:34:48.929Z,-1.60
2018-12-14T21:37:18.770Z,-1.60
2018-12-14T21:39:49.738Z,-1.60
2018-12-14T21:42:23.490Z,-1.60
2018-12-14T21:44:54.318Z,-1.60
2018-12-14T21:47:24.403Z,-1.70
2018-12-14T21:54:48.678Z,-1.70
2018-12-14T21:57:18.558Z,-1.70
2018-12-14T21:59:51.416Z,-1.70
2018-12-14T22:05:27.271Z,-1.80
2018-12-14T22:10:58.107Z,-1.80
2018-12-14T22:13:27.202Z,-1.80
2018-12-14T22:19:00.131Z,-1.80
2018-12-14T22:24:34.492Z,-1.80
2018-12-14T22:27:07.367Z,-1.90
2018-12-14T22:29:37.429Z,-1.90
2018-12-14T22:35:10.285Z,-1.90
2018-12-14T22:37:40.387Z,-1.90
2018-12-14T22:43:14.310Z,-1.90
2018-12-14T22:45:42.005Z,-1.90
2018-12-14T22:48:12.138Z,-1.90
2018-12-14T22:56:47.905Z,-1.90
2018-12-14T22:59:17.737Z,-1.90
2018-12-14T23:01:47.726Z,-1.90
2018-12-14T23:04:17.466Z,-1.90
2018-12-14T23:06:47.643Z,-1.90
2018-12-14T23:12:20.419Z,-1.90
2018-12-14T23:14:50.130Z,-1.90
2018-12-14T23:17:20.106Z,-1.90
2018-12-14T23:19:50.211Z,-1.90
2018-12-14T23:22:20.237Z,-1.90
2018-12-14T23:24:48.205Z,-1.90
2018-12-14T23:27:19.134Z,-1.90
2018-12-14T23:29:49.176Z,-1.90
2018-12-14T23:32:19.016Z,-1.90
2018-12-14T23:37:52.227Z,-1.90
2018-12-14T23:40:24.962Z,-1.90
2018-12-14T23:42:54.915Z,-1.90
2018-12-14T23:45:24.910Z,-1.90
2018-12-14T23:47:54.816Z,-1.90
2018-12-14T23:50:24.433Z,-1.90
2018-12-14T23:52:54.323Z,-1.90
2018-12-14T23:55:24.175Z,-1.90
2018-12-14T23:57:54.224Z,-1.90
